sensor_id;sensor_type;location;lat;lon;timestamp;P1;durP1;ratioP1;P2;durP2;ratioP2
32912;SDS011;19266;45.580;-122.680;2022-07-06T00:02:22;9.18;;;5.90;;
32912;SDS011;19266;45.580;-122.680;2022-07-06T00:04:51;8.08;;;5.75;;
32912;SDS011;19266;45.580;-122.680;2022-07-06T00:07:20;9.15;;;5.53;;
32912;SDS011;19266;45.580;-122.680;2022-07-06T00:09:50;8.70;;;5.90;;
32912;SDS011;19266;45.580;-122.680;2022-07-06T00:12:19;8.98;;;6.25;;
32912;SDS011;19266;45.580;-122.680;2022-07-06T00:14:50;7.30;;;5.70;;
32912;SDS011;19266;45.580;-122.680;2022-07-06T00:17:19;6.95;;;5.70;;
32912;SDS011;19266;45.580;-122.680;2022-07-06T00:19:48;9.90;;;5.83;;
32912;SDS011;19266;45.580;-122.680;2022-07-06T00:22:17;10.55;;;6.03;;
32912;SDS011;19266;45.580;-122.680;2022-07-06T00:24:46;7.22;;;5.53;;
32912;SDS011;19266;45.580;-122.680;2022-07-06T00:27:15;7.92;;;5.42;;
32912;SDS011;19266;45.580;-122.680;2022-07-06T00:29:44;9.08;;;5.20;;
32912;SDS011;19266;45.580;-122.680;2022-07-06T00:32:13;7.03;;;5.10;;
32912;SDS011;19266;45.580;-122.680;2022-07-06T00:34:42;14.05;;;5.60;;
32912;SDS011;19266;45.580;-122.680;2022-07-06T00:37:11;9.93;;;5.15;;
32912;SDS011;19266;45.580;-122.680;2022-07-06T00:39:42;24.47;;;6.00;;
32912;SDS011;19266;45.580;-122.680;2022-07-06T00:42:13;16.17;;;5.45;;
32912;SDS011;19266;45.580;-122.680;2022-07-06T00:44:42;10.13;;;5.35;;
32912;SDS011;19266;45.580;-122.680;2022-07-06T00:47:12;8.90;;;4.62;;
32912;SDS011;19266;45.580;-122.680;2022-07-06T00:49:41;9.95;;;4.78;;
32912;SDS011;19266;45.580;-122.680;2022-07-06T00:52:28;8.03;;;4.85;;
32912;SDS011;19266;45.580;-122.680;2022-07-06T00:54:57;8.00;;;5.08;;
32912;SDS011;19266;45.580;-122.680;2022-07-06T00:57:28;7.22;;;5.53;;
32912;SDS011;19266;45.580;-122.680;2022-07-06T00:59:59;7.65;;;4.92;;
32912;SDS011;19266;45.580;-122.680;2022-07-06T01:02:37;5.85;;;4.50;;
32912;SDS011;19266;45.580;-122.680;2022-07-06T01:04:59;5.33;;;4.12;;
32912;SDS011;19266;45.580;-122.680;2022-07-06T01:07:28;7.08;;;4.30;;
32912;SDS011;19266;45.580;-122.680;2022-07-06T01:09:58;7.03;;;4.10;;
32912;SDS011;19266;45.580;-122.680;2022-07-06T01:12:27;5.87;;;3.92;;
32912;SDS011;19266;45.580;-122.680;2022-07-06T01:14:57;7.37;;;4.20;;
32912;SDS011;19266;45.580;-122.680;2022-07-06T01:17:27;5.83;;;4.17;;
32912;SDS011;19266;45.580;-122.680;2022-07-06T01:19:56;7.28;;;4.40;;
32912;SDS011;19266;45.580;-122.680;2022-07-06T01:22:26;5.53;;;4.55;;
32912;SDS011;19266;45.580;-122.680;2022-07-06T01:24:55;5.97;;;4.65;;
32912;SDS011;19266;45.580;-122.680;2022-07-06T01:27:30;6.25;;;4.17;;
32912;SDS011;19266;45.580;-122.680;2022-07-06T01:29:56;5.50;;;4.40;;
32912;SDS011;19266;45.580;-122.680;2022-07-06T01:32:25;6.67;;;4.33;;
32912;SDS011;19266;45.580;-122.680;2022-07-06T01:34:54;9.40;;;4.53;;
32912;SDS011;19266;45.580;-122.680;2022-07-06T01:37:25;6.15;;;4.40;;
32912;SDS011;19266;45.580;-122.680;2022-07-06T01:39:53;7.28;;;4.37;;
32912;SDS011;19266;45.580;-122.680;2022-07-06T01:42:26;5.65;;;3.90;;
32912;SDS011;19266;45.580;-122.680;2022-07-06T01:44:55;5.67;;;4.25;;
32912;SDS011;19266;45.580;-122.680;2022-07-06T01:47:26;6.10;;;4.42;;
32912;SDS011;19266;45.580;-122.680;2022-07-06T01:49:57;6.58;;;3.85;;
32912;SDS011;19266;45.580;-122.680;2022-07-06T01:52:25;7.83;;;4.10;;
32912;SDS011;19266;45.580;-122.680;2022-07-06T01:54:55;5.72;;;4.00;;
32912;SDS011;19266;45.580;-122.680;2022-07-06T01:57:26;5.53;;;3.95;;
32912;SDS011;19266;45.580;-122.680;2022-07-06T01:59:55;5.60;;;3.75;;
32912;SDS011;19266;45.580;-122.680;2022-07-06T02:02:24;4.55;;;4.15;;
32912;SDS011;19266;45.580;-122.680;2022-07-06T02:04:55;5.85;;;4.42;;
32912;SDS011;19266;45.580;-122.680;2022-07-06T02:07:24;4.70;;;4.10;;
32912;SDS011;19266;45.580;-122.680;2022-07-06T02:09:55;4.62;;;4.17;;
32912;SDS011;19266;45.580;-122.680;2022-07-06T02:12:24;6.35;;;4.53;;
32912;SDS011;19266;45.580;-122.680;2022-07-06T02:14:55;5.58;;;4.62;;
32912;SDS011;19266;45.580;-122.680;2022-07-06T02:17:23;5.42;;;4.35;;
32912;SDS011;19266;45.580;-122.680;2022-07-06T02:19:52;5.42;;;4.20;;
32912;SDS011;19266;45.580;-122.680;2022-07-06T02:22:21;7.45;;;4.50;;
32912;SDS011;19266;45.580;-122.680;2022-07-06T02:24:50;6.67;;;4.83;;
32912;SDS011;19266;45.580;-122.680;2022-07-06T02:27:21;5.55;;;4.12;;
32912;SDS011;19266;45.580;-122.680;2022-07-06T02:29:52;5.45;;;4.20;;
32912;SDS011;19266;45.580;-122.680;2022-07-06T02:32:21;4.97;;;4.00;;
32912;SDS011;19266;45.580;-122.680;2022-07-06T02:34:50;5.85;;;4.30;;
32912;SDS011;19266;45.580;-122.680;2022-07-06T02:37:20;5.45;;;4.30;;
32912;SDS011;19266;45.580;-122.680;2022-07-06T02:39:49;6.35;;;4.62;;
32912;SDS011;19266;45.580;-122.680;2022-07-06T02:42:18;6.62;;;4.45;;
32912;SDS011;19266;45.580;-122.680;2022-07-06T02:44:48;5.50;;;4.45;;
32912;SDS011;19266;45.580;-122.680;2022-07-06T02:47:17;7.05;;;4.83;;
32912;SDS011;19266;45.580;-122.680;2022-07-06T02:49:46;6.55;;;4.80;;
32912;SDS011;19266;45.580;-122.680;2022-07-06T02:52:15;6.65;;;4.65;;
32912;SDS011;19266;45.580;-122.680;2022-07-06T02:54:44;5.42;;;4.65;;
32912;SDS011;19266;45.580;-122.680;2022-07-06T02:57:13;5.05;;;4.28;;
32912;SDS011;19266;45.580;-122.680;2022-07-06T02:59:43;5.58;;;4.20;;
32912;SDS011;19266;45.580;-122.680;2022-07-06T03:02:13;4.67;;;4.20;;
32912;SDS011;19266;45.580;-122.680;2022-07-06T03:04:42;5.20;;;3.83;;
32912;SDS011;19266;45.580;-122.680;2022-07-06T03:07:11;5.62;;;4.00;;
32912;SDS011;19266;45.580;-122.680;2022-07-06T03:09:42;5.72;;;3.90;;
32912;SDS011;19266;45.580;-122.680;2022-07-06T03:12:12;5.78;;;4.40;;
32912;SDS011;19266;45.580;-122.680;2022-07-06T03:14:43;6.05;;;4.30;;
32912;SDS011;19266;45.580;-122.680;2022-07-06T03:17:12;6.83;;;4.47;;
32912;SDS011;19266;45.580;-122.680;2022-07-06T03:19:41;5.08;;;4.35;;
32912;SDS011;19266;45.580;-122.680;2022-07-06T03:22:10;5.25;;;4.30;;
32912;SDS011;19266;45.580;-122.680;2022-07-06T03:24:39;6.00;;;4.40;;
32912;SDS011;19266;45.580;-122.680;2022-07-06T03:27:10;5.45;;;4.33;;
32912;SDS011;19266;45.580;-122.680;2022-07-06T03:29:39;4.70;;;3.98;;
32912;SDS011;19266;45.580;-122.680;2022-07-06T03:32:08;5.25;;;4.20;;
32912;SDS011;19266;45.580;-122.680;2022-07-06T03:34:37;6.03;;;4.50;;
32912;SDS011;19266;45.580;-122.680;2022-07-06T03:37:06;4.80;;;4.30;;
32912;SDS011;19266;45.580;-122.680;2022-07-06T03:39:35;6.37;;;4.62;;
32912;SDS011;19266;45.580;-122.680;2022-07-06T03:42:05;5.40;;;4.20;;
32912;SDS011;19266;45.580;-122.680;2022-07-06T03:44:34;6.08;;;4.55;;
32912;SDS011;19266;45.580;-122.680;2022-07-06T03:47:03;6.30;;;4.55;;
32912;SDS011;19266;45.580;-122.680;2022-07-06T03:49:32;6.15;;;4.30;;
32912;SDS011;19266;45.580;-122.680;2022-07-06T03:52:01;6.10;;;4.80;;
32912;SDS011;19266;45.580;-122.680;2022-07-06T03:54:34;6.40;;;4.10;;
32912;SDS011;19266;45.580;-122.680;2022-07-06T03:57:03;6.45;;;4.40;;
32912;SDS011;19266;45.580;-122.680;2022-07-06T03:59:33;6.58;;;4.78;;
32912;SDS011;19266;45.580;-122.680;2022-07-06T04:02:04;6.00;;;4.80;;
32912;SDS011;19266;45.580;-122.680;2022-07-06T04:04:36;7.72;;;4.70;;
32912;SDS011;19266;45.580;-122.680;2022-07-06T04:07:05;6.92;;;4.80;;
32912;SDS011;19266;45.580;-122.680;2022-07-06T04:09:34;5.97;;;4.40;;
32912;SDS011;19266;45.580;-122.680;2022-07-06T04:12:03;7.22;;;4.72;;
32912;SDS011;19266;45.580;-122.680;2022-07-06T04:14:33;6.92;;;5.10;;
32912;SDS011;19266;45.580;-122.680;2022-07-06T04:17:02;6.80;;;4.62;;
32912;SDS011;19266;45.580;-122.680;2022-07-06T04:19:33;6.62;;;4.83;;
32912;SDS011;19266;45.580;-122.680;2022-07-06T04:22:02;6.30;;;4.62;;
32912;SDS011;19266;45.580;-122.680;2022-07-06T04:24:31;5.60;;;4.37;;
32912;SDS011;19266;45.580;-122.680;2022-07-06T04:27:01;6.92;;;4.33;;
32912;SDS011;19266;45.580;-122.680;2022-07-06T04:29:30;6.03;;;4.50;;
32912;SDS011;19266;45.580;-122.680;2022-07-06T04:31:59;4.67;;;4.20;;
32912;SDS011;19266;45.580;-122.680;2022-07-06T04:34:28;5.80;;;4.47;;
32912;SDS011;19266;45.580;-122.680;2022-07-06T04:36:57;5.58;;;4.40;;
32912;SDS011;19266;45.580;-122.680;2022-07-06T04:39:26;4.80;;;4.25;;
32912;SDS011;19266;45.580;-122.680;2022-07-06T04:41:58;5.78;;;4.40;;
32912;SDS011;19266;45.580;-122.680;2022-07-06T04:44:29;5.22;;;4.12;;
32912;SDS011;19266;45.580;-122.680;2022-07-06T04:46:58;5.75;;;3.85;;
32912;SDS011;19266;45.580;-122.680;2022-07-06T04:49:28;6.00;;;4.42;;
32912;SDS011;19266;45.580;-122.680;2022-07-06T04:51:57;7.12;;;4.20;;
32912;SDS011;19266;45.580;-122.680;2022-07-06T04:54:26;4.92;;;4.10;;
32912;SDS011;19266;45.580;-122.680;2022-07-06T04:56:55;5.12;;;4.30;;
32912;SDS011;19266;45.580;-122.680;2022-07-06T04:59:24;5.72;;;4.20;;
32912;SDS011;19266;45.580;-122.680;2022-07-06T05:01:53;5.15;;;3.95;;
32912;SDS011;19266;45.580;-122.680;2022-07-06T05:04:24;4.10;;;3.70;;
32912;SDS011;19266;45.580;-122.680;2022-07-06T05:06:53;4.55;;;3.98;;
32912;SDS011;19266;45.580;-122.680;2022-07-06T05:09:22;4.10;;;3.60;;
32912;SDS011;19266;45.580;-122.680;2022-07-06T05:11:51;4.17;;;3.77;;
32912;SDS011;19266;45.580;-122.680;2022-07-06T05:14:21;5.05;;;3.87;;
32912;SDS011;19266;45.580;-122.680;2022-07-06T05:16:50;5.47;;;4.50;;
32912;SDS011;19266;45.580;-122.680;2022-07-06T05:19:21;4.87;;;4.37;;
32912;SDS011;19266;45.580;-122.680;2022-07-06T05:21:51;6.35;;;4.40;;
32912;SDS011;19266;45.580;-122.680;2022-07-06T05:24:20;6.03;;;4.50;;
32912;SDS011;19266;45.580;-122.680;2022-07-06T05:26:50;4.87;;;4.28;;
32912;SDS011;19266;45.580;-122.680;2022-07-06T05:29:19;5.50;;;4.25;;
32912;SDS011;19266;45.580;-122.680;2022-07-06T05:31:48;6.65;;;4.50;;
32912;SDS011;19266;45.580;-122.680;2022-07-06T05:34:17;6.25;;;4.50;;
32912;SDS011;19266;45.580;-122.680;2022-07-06T05:36:47;6.28;;;4.90;;
32912;SDS011;19266;45.580;-122.680;2022-07-06T05:39:16;5.90;;;4.92;;
32912;SDS011;19266;45.580;-122.680;2022-07-06T05:41:48;7.28;;;4.97;;
32912;SDS011;19266;45.580;-122.680;2022-07-06T05:44:16;6.45;;;4.53;;
32912;SDS011;19266;45.580;-122.680;2022-07-06T05:46:46;6.53;;;4.87;;
32912;SDS011;19266;45.580;-122.680;2022-07-06T05:49:15;5.50;;;4.90;;
32912;SDS011;19266;45.580;-122.680;2022-07-06T05:52:02;4.72;;;4.12;;
32912;SDS011;19266;45.580;-122.680;2022-07-06T05:54:32;5.87;;;4.40;;
32912;SDS011;19266;45.580;-122.680;2022-07-06T05:57:01;4.92;;;4.00;;
32912;SDS011;19266;45.580;-122.680;2022-07-06T05:59:30;6.55;;;4.53;;
32912;SDS011;19266;45.580;-122.680;2022-07-06T06:02:00;7.28;;;4.67;;
32912;SDS011;19266;45.580;-122.680;2022-07-06T06:04:29;6.53;;;4.67;;
32912;SDS011;19266;45.580;-122.680;2022-07-06T06:06:58;5.60;;;4.70;;
32912;SDS011;19266;45.580;-122.680;2022-07-06T06:09:29;5.83;;;4.30;;
32912;SDS011;19266;45.580;-122.680;2022-07-06T06:11:58;4.85;;;4.35;;
32912;SDS011;19266;45.580;-122.680;2022-07-06T06:14:27;4.75;;;4.25;;
32912;SDS011;19266;45.580;-122.680;2022-07-06T06:16:56;5.08;;;4.40;;
32912;SDS011;19266;45.580;-122.680;2022-07-06T06:19:28;5.00;;;4.50;;
32912;SDS011;19266;45.580;-122.680;2022-07-06T06:21:58;7.62;;;4.90;;
32912;SDS011;19266;45.580;-122.680;2022-07-06T06:24:28;6.55;;;4.80;;
32912;SDS011;19266;45.580;-122.680;2022-07-06T06:26:57;7.50;;;4.92;;
32912;SDS011;19266;45.580;-122.680;2022-07-06T06:29:29;6.17;;;4.80;;
32912;SDS011;19266;45.580;-122.680;2022-07-06T06:32:00;6.10;;;4.50;;
32912;SDS011;19266;45.580;-122.680;2022-07-06T06:34:31;7.95;;;4.35;;
32912;SDS011;19266;45.580;-122.680;2022-07-06T06:36:59;4.70;;;4.20;;
32912;SDS011;19266;45.580;-122.680;2022-07-06T06:39:45;5.25;;;4.40;;
32912;SDS011;19266;45.580;-122.680;2022-07-06T06:42:14;5.62;;;4.50;;
32912;SDS011;19266;45.580;-122.680;2022-07-06T06:44:43;5.15;;;4.10;;
32912;SDS011;19266;45.580;-122.680;2022-07-06T06:47:12;5.83;;;4.30;;
32912;SDS011;19266;45.580;-122.680;2022-07-06T06:49:41;5.00;;;4.40;;
32912;SDS011;19266;45.580;-122.680;2022-07-06T06:52:10;5.70;;;4.28;;
32912;SDS011;19266;45.580;-122.680;2022-07-06T06:54:40;5.00;;;4.40;;
32912;SDS011;19266;45.580;-122.680;2022-07-06T06:57:09;6.90;;;4.80;;
32912;SDS011;19266;45.580;-122.680;2022-07-06T06:59:38;5.37;;;4.65;;
32912;SDS011;19266;45.580;-122.680;2022-07-06T07:02:07;6.22;;;4.97;;
32912;SDS011;19266;45.580;-122.680;2022-07-06T07:04:37;6.10;;;4.80;;
32912;SDS011;19266;45.580;-122.680;2022-07-06T07:07:06;6.37;;;4.65;;
32912;SDS011;19266;45.580;-122.680;2022-07-06T07:09:35;5.83;;;4.80;;
32912;SDS011;19266;45.580;-122.680;2022-07-06T07:12:04;7.53;;;5.03;;
32912;SDS011;19266;45.580;-122.680;2022-07-06T07:14:33;6.35;;;5.25;;
32912;SDS011;19266;45.580;-122.680;2022-07-06T07:17:03;6.08;;;5.08;;
32912;SDS011;19266;45.580;-122.680;2022-07-06T07:19:32;6.20;;;5.17;;
32912;SDS011;19266;45.580;-122.680;2022-07-06T07:22:01;7.90;;;5.00;;
32912;SDS011;19266;45.580;-122.680;2022-07-06T07:24:30;7.72;;;5.87;;
32912;SDS011;19266;45.580;-122.680;2022-07-06T07:26:59;6.85;;;5.15;;
32912;SDS011;19266;45.580;-122.680;2022-07-06T07:29:28;6.67;;;5.08;;
32912;SDS011;19266;45.580;-122.680;2022-07-06T07:31:57;5.55;;;3.80;;
32912;SDS011;19266;45.580;-122.680;2022-07-06T07:34:27;4.62;;;4.03;;
32912;SDS011;19266;45.580;-122.680;2022-07-06T07:36:56;4.00;;;3.60;;
32912;SDS011;19266;45.580;-122.680;2022-07-06T07:39:25;5.35;;;4.00;;
32912;SDS011;19266;45.580;-122.680;2022-07-06T07:41:54;4.87;;;3.83;;
32912;SDS011;19266;45.580;-122.680;2022-07-06T07:44:23;4.60;;;3.62;;
32912;SDS011;19266;45.580;-122.680;2022-07-06T07:46:54;5.22;;;4.10;;
32912;SDS011;19266;45.580;-122.680;2022-07-06T07:49:23;5.17;;;3.98;;
32912;SDS011;19266;45.580;-122.680;2022-07-06T07:51:52;4.15;;;3.75;;
32912;SDS011;19266;45.580;-122.680;2022-07-06T07:54:21;5.10;;;4.05;;
32912;SDS011;19266;45.580;-122.680;2022-07-06T07:56:50;5.15;;;4.22;;
32912;SDS011;19266;45.580;-122.680;2022-07-06T07:59:19;5.83;;;4.25;;
32912;SDS011;19266;45.580;-122.680;2022-07-06T08:01:48;6.40;;;4.65;;
32912;SDS011;19266;45.580;-122.680;2022-07-06T08:04:18;5.37;;;4.33;;
32912;SDS011;19266;45.580;-122.680;2022-07-06T08:06:47;4.90;;;4.30;;
32912;SDS011;19266;45.580;-122.680;2022-07-06T08:09:16;5.80;;;4.28;;
32912;SDS011;19266;45.580;-122.680;2022-07-06T08:11:45;5.85;;;4.10;;
32912;SDS011;19266;45.580;-122.680;2022-07-06T08:14:15;4.62;;;4.10;;
32912;SDS011;19266;45.580;-122.680;2022-07-06T08:16:44;4.75;;;4.05;;
32912;SDS011;19266;45.580;-122.680;2022-07-06T08:19:13;5.80;;;4.55;;
32912;SDS011;19266;45.580;-122.680;2022-07-06T08:21:42;6.37;;;4.80;;
32912;SDS011;19266;45.580;-122.680;2022-07-06T08:24:12;7.55;;;4.90;;
32912;SDS011;19266;45.580;-122.680;2022-07-06T08:26:41;8.33;;;5.83;;
32912;SDS011;19266;45.580;-122.680;2022-07-06T08:29:10;8.43;;;5.72;;
32912;SDS011;19266;45.580;-122.680;2022-07-06T08:31:39;9.90;;;5.92;;
32912;SDS011;19266;45.580;-122.680;2022-07-06T08:34:08;10.23;;;6.03;;
32912;SDS011;19266;45.580;-122.680;2022-07-06T08:36:38;7.85;;;5.60;;
32912;SDS011;19266;45.580;-122.680;2022-07-06T08:39:07;8.88;;;5.90;;
32912;SDS011;19266;45.580;-122.680;2022-07-06T08:41:36;11.30;;;6.37;;
32912;SDS011;19266;45.580;-122.680;2022-07-06T08:44:06;10.38;;;6.08;;
32912;SDS011;19266;45.580;-122.680;2022-07-06T08:46:43;14.40;;;6.22;;
32912;SDS011;19266;45.580;-122.680;2022-07-06T08:49:10;15.15;;;6.53;;
32912;SDS011;19266;45.580;-122.680;2022-07-06T08:51:37;11.25;;;6.40;;
32912;SDS011;19266;45.580;-122.680;2022-07-06T08:54:07;12.18;;;6.25;;
32912;SDS011;19266;45.580;-122.680;2022-07-06T08:56:36;11.40;;;6.53;;
32912;SDS011;19266;45.580;-122.680;2022-07-06T08:59:06;9.38;;;5.72;;
32912;SDS011;19266;45.580;-122.680;2022-07-06T09:01:38;10.55;;;5.55;;
32912;SDS011;19266;45.580;-122.680;2022-07-06T09:04:07;8.10;;;4.95;;
32912;SDS011;19266;45.580;-122.680;2022-07-06T09:06:37;6.97;;;5.17;;
32912;SDS011;19266;45.580;-122.680;2022-07-06T09:09:08;8.85;;;5.20;;
32912;SDS011;19266;45.580;-122.680;2022-07-06T09:11:38;8.80;;;5.20;;
32912;SDS011;19266;45.580;-122.680;2022-07-06T09:14:07;11.03;;;5.47;;
32912;SDS011;19266;45.580;-122.680;2022-07-06T09:16:36;7.22;;;4.90;;
32912;SDS011;19266;45.580;-122.680;2022-07-06T09:19:11;7.50;;;5.22;;
32912;SDS011;19266;45.580;-122.680;2022-07-06T09:21:36;8.13;;;5.08;;
32912;SDS011;19266;45.580;-122.680;2022-07-06T09:24:06;7.35;;;5.03;;
32912;SDS011;19266;45.580;-122.680;2022-07-06T09:26:35;8.63;;;5.50;;
32912;SDS011;19266;45.580;-122.680;2022-07-06T09:29:05;8.25;;;5.03;;
32912;SDS011;19266;45.580;-122.680;2022-07-06T09:31:34;8.53;;;4.92;;
32912;SDS011;19266;45.580;-122.680;2022-07-06T09:34:04;5.83;;;4.78;;
32912;SDS011;19266;45.580;-122.680;2022-07-06T09:36:42;7.47;;;5.15;;
32912;SDS011;19266;45.580;-122.680;2022-07-06T09:39:23;7.17;;;4.80;;
32912;SDS011;19266;45.580;-122.680;2022-07-06T09:41:59;6.60;;;4.62;;
32912;SDS011;19266;45.580;-122.680;2022-07-06T09:44:29;5.42;;;4.47;;
32912;SDS011;19266;45.580;-122.680;2022-07-06T09:46:59;5.08;;;4.10;;
32912;SDS011;19266;45.580;-122.680;2022-07-06T09:49:28;5.42;;;4.33;;
32912;SDS011;19266;45.580;-122.680;2022-07-06T09:51:58;4.50;;;4.10;;
32912;SDS011;19266;45.580;-122.680;2022-07-06T09:54:27;5.28;;;4.22;;
32912;SDS011;19266;45.580;-122.680;2022-07-06T09:56:56;5.97;;;4.40;;
32912;SDS011;19266;45.580;-122.680;2022-07-06T09:59:26;5.45;;;4.42;;
32912;SDS011;19266;45.580;-122.680;2022-07-06T10:01:56;7.35;;;5.10;;
32912;SDS011;19266;45.580;-122.680;2022-07-06T10:04:25;7.28;;;5.15;;
32912;SDS011;19266;45.580;-122.680;2022-07-06T10:06:55;8.30;;;5.75;;
32912;SDS011;19266;45.580;-122.680;2022-07-06T10:09:25;8.33;;;5.78;;
32912;SDS011;19266;45.580;-122.680;2022-07-06T10:11:58;6.97;;;5.65;;
32912;SDS011;19266;45.580;-122.680;2022-07-06T10:14:28;8.58;;;5.95;;
32912;SDS011;19266;45.580;-122.680;2022-07-06T10:16:58;6.72;;;5.50;;
32912;SDS011;19266;45.580;-122.680;2022-07-06T10:19:28;7.37;;;5.47;;
32912;SDS011;19266;45.580;-122.680;2022-07-06T10:22:03;8.00;;;5.33;;
32912;SDS011;19266;45.580;-122.680;2022-07-06T10:24:27;9.35;;;5.92;;
32912;SDS011;19266;45.580;-122.680;2022-07-06T10:26:57;8.08;;;5.62;;
32912;SDS011;19266;45.580;-122.680;2022-07-06T10:29:26;8.80;;;5.78;;
32912;SDS011;19266;45.580;-122.680;2022-07-06T10:31:55;8.20;;;5.75;;
32912;SDS011;19266;45.580;-122.680;2022-07-06T10:34:24;8.28;;;5.85;;
32912;SDS011;19266;45.580;-122.680;2022-07-06T10:36:53;8.70;;;6.10;;
32912;SDS011;19266;45.580;-122.680;2022-07-06T10:39:39;9.63;;;6.42;;
32912;SDS011;19266;45.580;-122.680;2022-07-06T10:45:15;9.88;;;6.20;;
32912;SDS011;19266;45.580;-122.680;2022-07-06T10:47:40;9.15;;;6.33;;
32912;SDS011;19266;45.580;-122.680;2022-07-06T10:50:10;10.30;;;6.22;;
32912;SDS011;19266;45.580;-122.680;2022-07-06T10:52:58;12.20;;;6.35;;
32912;SDS011;19266;45.580;-122.680;2022-07-06T10:55:28;9.40;;;6.60;;
32912;SDS011;19266;45.580;-122.680;2022-07-06T10:57:58;8.35;;;6.10;;
32912;SDS011;19266;45.580;-122.680;2022-07-06T11:03:34;10.32;;;5.92;;
32912;SDS011;19266;45.580;-122.680;2022-07-06T11:06:13;9.00;;;5.72;;
32912;SDS011;19266;45.580;-122.680;2022-07-06T11:11:13;7.72;;;5.17;;
32912;SDS011;19266;45.580;-122.680;2022-07-06T11:13:48;9.18;;;5.08;;
32912;SDS011;19266;45.580;-122.680;2022-07-06T11:16:17;7.12;;;4.90;;
32912;SDS011;19266;45.580;-122.680;2022-07-06T11:19:07;6.80;;;4.90;;
32912;SDS011;19266;45.580;-122.680;2022-07-06T11:21:24;8.80;;;4.47;;
32912;SDS011;19266;45.580;-122.680;2022-07-06T11:23:54;9.08;;;5.03;;
32912;SDS011;19266;45.580;-122.680;2022-07-06T11:26:23;5.85;;;4.20;;
32912;SDS011;19266;45.580;-122.680;2022-07-06T11:31:43;6.83;;;4.00;;
32912;SDS011;19266;45.580;-122.680;2022-07-06T11:34:13;6.58;;;4.15;;
32912;SDS011;19266;45.580;-122.680;2022-07-06T11:36:42;5.15;;;4.12;;
32912;SDS011;19266;45.580;-122.680;2022-07-06T11:39:11;8.75;;;4.45;;
32912;SDS011;19266;45.580;-122.680;2022-07-06T11:41:41;9.88;;;4.70;;
32912;SDS011;19266;45.580;-122.680;2022-07-06T11:44:10;7.28;;;4.28;;
32912;SDS011;19266;45.580;-122.680;2022-07-06T11:46:39;9.28;;;4.30;;
32912;SDS011;19266;45.580;-122.680;2022-07-06T11:49:09;7.55;;;4.60;;
32912;SDS011;19266;45.580;-122.680;2022-07-06T11:51:38;7.80;;;4.28;;
32912;SDS011;19266;45.580;-122.680;2022-07-06T11:54:16;8.03;;;4.50;;
32912;SDS011;19266;45.580;-122.680;2022-07-06T11:56:53;9.25;;;4.37;;
32912;SDS011;19266;45.580;-122.680;2022-07-06T11:59:23;6.37;;;4.15;;
32912;SDS011;19266;45.580;-122.680;2022-07-06T12:04:29;8.65;;;4.37;;
32912;SDS011;19266;45.580;-122.680;2022-07-06T12:07:02;11.60;;;4.92;;
32912;SDS011;19266;45.580;-122.680;2022-07-06T12:09:31;14.75;;;5.50;;
32912;SDS011;19266;45.580;-122.680;2022-07-06T12:12:01;11.45;;;5.25;;
32912;SDS011;19266;45.580;-122.680;2022-07-06T12:14:31;11.60;;;5.17;;
32912;SDS011;19266;45.580;-122.680;2022-07-06T12:17:07;13.20;;;5.62;;
32912;SDS011;19266;45.580;-122.680;2022-07-06T12:19:37;9.43;;;4.90;;
32912;SDS011;19266;45.580;-122.680;2022-07-06T12:22:06;8.78;;;4.75;;
32912;SDS011;19266;45.580;-122.680;2022-07-06T12:24:36;9.53;;;4.75;;
32912;SDS011;19266;45.580;-122.680;2022-07-06T12:27:19;10.13;;;4.85;;
32912;SDS011;19266;45.580;-122.680;2022-07-06T12:29:48;5.60;;;4.33;;
32912;SDS011;19266;45.580;-122.680;2022-07-06T12:32:22;7.00;;;4.20;;
32912;SDS011;19266;45.580;-122.680;2022-07-06T12:34:47;6.47;;;4.55;;
32912;SDS011;19266;45.580;-122.680;2022-07-06T12:37:17;7.92;;;4.50;;
32912;SDS011;19266;45.580;-122.680;2022-07-06T12:39:47;4.75;;;3.75;;
32912;SDS011;19266;45.580;-122.680;2022-07-06T12:42:17;4.92;;;4.00;;
32912;SDS011;19266;45.580;-122.680;2022-07-06T12:44:48;5.37;;;4.05;;
32912;SDS011;19266;45.580;-122.680;2022-07-06T12:47:21;6.62;;;4.05;;
32912;SDS011;19266;45.580;-122.680;2022-07-06T12:50:12;5.80;;;3.87;;
32912;SDS011;19266;45.580;-122.680;2022-07-06T12:52:21;7.60;;;4.35;;
32912;SDS011;19266;45.580;-122.680;2022-07-06T12:54:50;6.47;;;4.08;;
32912;SDS011;19266;45.580;-122.680;2022-07-06T12:57:20;6.45;;;4.72;;
32912;SDS011;19266;45.580;-122.680;2022-07-06T13:02:29;6.35;;;4.53;;
32912;SDS011;19266;45.580;-122.680;2022-07-06T13:05:02;7.17;;;4.42;;
32912;SDS011;19266;45.580;-122.680;2022-07-06T13:07:30;8.83;;;5.00;;
32912;SDS011;19266;45.580;-122.680;2022-07-06T13:10:02;7.75;;;4.70;;
32912;SDS011;19266;45.580;-122.680;2022-07-06T13:12:31;8.43;;;4.70;;
32912;SDS011;19266;45.580;-122.680;2022-07-06T13:15:00;7.20;;;4.70;;
32912;SDS011;19266;45.580;-122.680;2022-07-06T13:17:30;9.55;;;4.97;;
32912;SDS011;19266;45.580;-122.680;2022-07-06T13:19:59;5.65;;;4.35;;
32912;SDS011;19266;45.580;-122.680;2022-07-06T13:22:28;8.70;;;4.33;;
32912;SDS011;19266;45.580;-122.680;2022-07-06T13:24:57;5.97;;;4.42;;
32912;SDS011;19266;45.580;-122.680;2022-07-06T13:27:26;6.95;;;4.80;;
32912;SDS011;19266;45.580;-122.680;2022-07-06T13:29:55;7.67;;;4.90;;
32912;SDS011;19266;45.580;-122.680;2022-07-06T13:32:24;6.20;;;4.53;;
32912;SDS011;19266;45.580;-122.680;2022-07-06T13:34:53;6.72;;;4.90;;
32912;SDS011;19266;45.580;-122.680;2022-07-06T13:37:23;9.05;;;4.70;;
32912;SDS011;19266;45.580;-122.680;2022-07-06T13:39:52;8.63;;;4.80;;
32912;SDS011;19266;45.580;-122.680;2022-07-06T13:42:21;13.68;;;5.55;;
32912;SDS011;19266;45.580;-122.680;2022-07-06T13:44:50;12.93;;;5.80;;
32912;SDS011;19266;45.580;-122.680;2022-07-06T13:47:19;8.68;;;4.83;;
32912;SDS011;19266;45.580;-122.680;2022-07-06T13:49:48;9.90;;;5.00;;
32912;SDS011;19266;45.580;-122.680;2022-07-06T13:52:17;10.00;;;5.58;;
32912;SDS011;19266;45.580;-122.680;2022-07-06T13:54:47;10.82;;;5.22;;
32912;SDS011;19266;45.580;-122.680;2022-07-06T13:57:16;10.85;;;5.12;;
32912;SDS011;19266;45.580;-122.680;2022-07-06T13:59:45;9.48;;;5.40;;
32912;SDS011;19266;45.580;-122.680;2022-07-06T14:02:14;14.98;;;5.65;;
32912;SDS011;19266;45.580;-122.680;2022-07-06T14:04:43;11.95;;;5.60;;
32912;SDS011;19266;45.580;-122.680;2022-07-06T14:07:12;12.18;;;5.40;;
32912;SDS011;19266;45.580;-122.680;2022-07-06T14:09:41;8.73;;;4.40;;
32912;SDS011;19266;45.580;-122.680;2022-07-06T14:12:10;6.58;;;3.90;;
32912;SDS011;19266;45.580;-122.680;2022-07-06T14:14:39;4.62;;;2.77;;
32912;SDS011;19266;45.580;-122.680;2022-07-06T14:17:09;3.77;;;2.42;;
32912;SDS011;19266;45.580;-122.680;2022-07-06T14:19:38;4.55;;;2.90;;
32912;SDS011;19266;45.580;-122.680;2022-07-06T14:22:07;4.08;;;2.50;;
32912;SDS011;19266;45.580;-122.680;2022-07-06T14:24:36;5.15;;;2.62;;
32912;SDS011;19266;45.580;-122.680;2022-07-06T14:27:05;4.42;;;2.50;;
32912;SDS011;19266;45.580;-122.680;2022-07-06T14:29:35;3.45;;;2.60;;
32912;SDS011;19266;45.580;-122.680;2022-07-06T14:32:04;5.08;;;2.30;;
32912;SDS011;19266;45.580;-122.680;2022-07-06T14:34:33;2.47;;;2.22;;
32912;SDS011;19266;45.580;-122.680;2022-07-06T14:37:02;2.85;;;2.22;;
32912;SDS011;19266;45.580;-122.680;2022-07-06T14:39:31;4.53;;;2.12;;
32912;SDS011;19266;45.580;-122.680;2022-07-06T14:42:00;3.37;;;2.30;;